createdAt,value
2018-01-01T00:00:33.538Z,0.00
2018-01-01T00:01:33.526Z,0.00
2018-01-01T00:02:33.519Z,0.00
2018-01-01T00:03:33.509Z,0.00
2018-01-01T00:04:33.502Z,0.00
2018-01-01T00:05:33.498Z,0.00
2018-01-01T00:06:33.481Z,0.00
2018-01-01T00:07:33.475Z,0.00
2018-01-01T00:08:33.463Z,0.00
2018-01-01T00:09:33.458Z,0.00
2018-01-01T00:10:33.481Z,0.00
2018-01-01T00:11:33.434Z,0.00
2018-01-01T00:12:33.422Z,0.00
2018-01-01T00:13:33.437Z,0.00
2018-01-01T00:14:33.412Z,0.00
2018-01-01T00:15:33.393Z,0.00
2018-01-01T00:16:33.386Z,0.00
2018-01-01T00:17:33.378Z,0.00
2018-01-01T00:18:33.372Z,0.00
2018-01-01T00:19:33.373Z,0.00
2018-01-01T00:20:33.378Z,0.00
2018-01-01T00:21:33.345Z,0.00
2018-01-01T00:22:33.328Z,0.00
2018-01-01T00:23:33.318Z,0.00
2018-01-01T00:24:33.316Z,0.00
2018-01-01T00:25:33.301Z,0.00
2018-01-01T00:26:33.304Z,0.00
2018-01-01T00:27:33.284Z,0.00
2018-01-01T00:28:33.277Z,0.00
2018-01-01T00:29:33.269Z,0.00
2018-01-01T00:30:33.257Z,0.00
2018-01-01T00:31:33.249Z,0.00
2018-01-01T00:32:33.236Z,0.00
2018-01-01T00:33:33.230Z,0.00
2018-01-01T00:34:33.217Z,0.00
2018-01-01T00:35:33.210Z,0.00
2018-01-01T00:36:33.201Z,0.00
2018-01-01T00:37:33.189Z,0.00
2018-01-01T00:38:33.186Z,0.00
2018-01-01T00:39:33.180Z,0.00
2018-01-01T00:40:33.187Z,0.00
2018-01-01T00:41:33.150Z,0.00
2018-01-01T00:42:33.142Z,0.00
2018-01-01T00:43:33.134Z,0.00
2018-01-01T00:44:33.130Z,0.00
2018-01-01T00:45:33.142Z,0.00
2018-01-01T00:46:33.102Z,0.00
2018-01-01T00:47:33.100Z,0.00
2018-01-01T00:48:33.086Z,0.00
2018-01-01T00:49:33.075Z,0.00
2018-01-01T00:50:33.068Z,0.00
2018-01-01T00:51:33.056Z,0.00
2018-01-01T00:52:33.066Z,0.00
2018-01-01T00:53:33.039Z,0.00
2018-01-01T00:54:33.030Z,0.00
2018-01-01T00:55:33.024Z,0.00
2018-01-01T00:56:33.008Z,0.00
2018-01-01T00:57:33.000Z,0.00
2018-01-01T00:58:32.993Z,0.00
2018-01-01T00:59:32.980Z,0.00
2018-01-01T01:00:32.970Z,0.00
2018-01-01T01:01:32.964Z,0.00
2018-01-01T01:02:32.951Z,0.00
2018-01-01T01:03:32.944Z,0.00
2018-01-01T01:04:32.934Z,0.00
2018-01-01T01:05:32.923Z,0.00
2018-01-01T01:06:32.913Z,0.00
2018-01-01T01:07:32.905Z,0.00
2018-01-01T01:08:32.897Z,0.00
2018-01-01T01:09:32.885Z,0.00
2018-01-01T01:10:32.879Z,0.00
2018-01-01T01:11:32.874Z,0.00
2018-01-01T01:12:32.860Z,0.00
2018-01-01T01:13:32.852Z,0.00
2018-01-01T01:14:32.835Z,0.00
2018-01-01T01:15:32.830Z,0.00
2018-01-01T01:16:32.831Z,0.00
2018-01-01T01:17:32.812Z,0.00
2018-01-01T01:18:32.798Z,0.00
2018-01-01T01:19:32.800Z,0.00
2018-01-01T01:20:32.781Z,0.00
2018-01-01T01:21:37.673Z,0.00
2018-01-01T01:22:32.764Z,0.00
2018-01-01T01:23:32.752Z,0.00
2018-01-01T01:24:32.742Z,0.00
2018-01-01T01:25:32.733Z,0.00
2018-01-01T01:26:32.727Z,0.00
2018-01-01T01:27:32.716Z,0.00
2018-01-01T01:28:32.706Z,0.00
2018-01-01T01:29:32.690Z,0.00
2018-01-01T01:30:56.675Z,0.00
2018-01-01T01:31:32.678Z,0.00
2018-01-01T01:32:32.682Z,0.00
2018-01-01T01:33:32.654Z,0.00
2018-01-01T01:34:32.643Z,0.00
2018-01-01T01:35:32.631Z,0.00
2018-01-01T01:36:32.625Z,0.00
2018-01-01T01:37:32.621Z,0.00
2018-01-01T01:38:32.606Z,0.00
2018-01-01T01:39:32.595Z,0.00
2018-01-01T01:40:32.586Z,0.00
2018-01-01T01:41:32.579Z,0.00
2018-01-01T01:42:32.568Z,0.00
2018-01-01T01:43:32.554Z,0.00
2018-01-01T01:44:32.549Z,0.00
2018-01-01T01:45:32.538Z,0.00
2018-01-01T01:46:32.528Z,0.00
2018-01-01T01:47:32.520Z,0.00
2018-01-01T01:48:32.513Z,0.00
2018-01-01T01:49:32.508Z,0.00
2018-01-01T01:50:32.489Z,0.00
2018-01-01T01:51:32.481Z,0.00
2018-01-01T01:52:32.465Z,0.00
2018-01-01T01:53:32.463Z,0.00
2018-01-01T01:54:32.451Z,0.00
2018-01-01T01:55:32.438Z,0.00
2018-01-01T01:56:32.428Z,0.00
2018-01-01T01:57:32.417Z,0.00
2018-01-01T01:58:32.410Z,0.00
2018-01-01T01:59:32.411Z,0.00
2018-01-01T02:00:32.397Z,0.00
2018-01-01T02:01:32.388Z,0.00
2018-01-01T02:02:32.373Z,0.00
2018-01-01T02:03:32.360Z,0.00
2018-01-01T02:04:32.350Z,0.00
2018-01-01T02:05:32.353Z,0.00
2018-01-01T02:06:32.335Z,0.00
2018-01-01T02:07:32.323Z,0.00
2018-01-01T02:08:32.313Z,0.00
2018-01-01T02:09:32.303Z,0.00
2018-01-01T02:10:32.294Z,0.00
2018-01-01T02:11:32.287Z,0.00
2018-01-01T02:12:32.270Z,0.00
2018-01-01T02:13:32.265Z,0.00
2018-01-01T02:14:32.256Z,0.00
2018-01-01T02:15:32.240Z,0.00
2018-01-01T02:16:32.236Z,0.00
2018-01-01T02:17:32.227Z,0.00
2018-01-01T02:18:32.220Z,0.00
2018-01-01T02:19:32.211Z,0.00
2018-01-01T02:20:32.200Z,0.00
2018-01-01T02:21:32.188Z,0.00
2018-01-01T02:22:32.179Z,0.00
2018-01-01T02:23:32.168Z,0.00
2018-01-01T02:24:32.160Z,0.00
2018-01-01T02:25:32.146Z,0.00
2018-01-01T02:26:32.139Z,0.00
2018-01-01T02:27:32.130Z,0.00
2018-01-01T02:28:32.121Z,0.00
2018-01-01T02:29:32.116Z,0.00
2018-01-01T02:30:32.098Z,0.00
2018-01-01T02:31:32.089Z,0.00
2018-01-01T02:32:32.079Z,0.00
2018-01-01T02:33:32.071Z,0.00
2018-01-01T02:34:32.056Z,0.00
2018-01-01T02:35:32.050Z,0.00
2018-01-01T02:36:32.043Z,0.00
2018-01-01T02:37:32.040Z,0.00
2018-01-01T02:38:32.026Z,0.00
2018-01-01T02:39:32.008Z,0.00
2018-01-01T02:40:31.998Z,0.00
2018-01-01T02:41:32.004Z,0.00
2018-01-01T02:42:31.983Z,0.00
2018-01-01T02:43:31.974Z,0.00
2018-01-01T02:44:31.960Z,0.00
2018-01-01T02:45:31.955Z,0.00
2018-01-01T02:46:31.948Z,0.00
2018-01-01T02:47:31.942Z,0.00
2018-01-01T02:48:31.936Z,0.00
2018-01-01T02:49:31.923Z,0.00
2018-01-01T02:50:31.905Z,0.00
2018-01-01T02:51:31.896Z,0.00
2018-01-01T02:52:31.888Z,0.00
2018-01-01T02:53:31.873Z,0.00
2018-01-01T02:54:31.864Z,0.00
2018-01-01T02:55:31.861Z,0.00
2018-01-01T02:56:31.902Z,0.00
2018-01-01T02:57:31.836Z,0.00
2018-01-01T02:58:31.831Z,0.00
2018-01-01T02:59:31.821Z,0.00
2018-01-01T03:00:31.813Z,0.00
2018-01-01T03:01:31.796Z,0.00
2018-01-01T03:02:31.792Z,0.00
2018-01-01T03:03:31.777Z,0.00
2018-01-01T03:04:31.767Z,0.00
2018-01-01T03:05:31.769Z,0.00
2018-01-01T03:06:31.747Z,0.00
2018-01-01T03:07:31.734Z,0.00
2018-01-01T03:08:31.726Z,0.00
2018-01-01T03:09:31.713Z,0.00
2018-01-01T03:10:31.705Z,0.00
2018-01-01T03:11:31.703Z,0.00
2018-01-01T03:12:31.694Z,0.00
2018-01-01T03:13:31.685Z,0.00
2018-01-01T03:14:31.664Z,0.00
2018-01-01T03:15:31.673Z,0.00
2018-01-01T03:16:31.665Z,0.00
2018-01-01T03:17:31.674Z,0.00
2018-01-01T03:18:31.674Z,0.00
2018-01-01T03:19:31.621Z,0.00
2018-01-01T03:20:31.610Z,0.00
2018-01-01T03:21:31.597Z,0.00
2018-01-01T03:22:31.589Z,0.00
2018-01-01T03:23:31.600Z,0.00
2018-01-01T03:24:31.568Z,0.00
2018-01-01T03:25:31.566Z,0.00
2018-01-01T03:26:31.548Z,0.00
2018-01-01T03:27:31.550Z,0.00
2018-01-01T03:28:31.558Z,0.00
2018-01-01T03:29:31.547Z,0.00
2018-01-01T03:30:31.509Z,0.00
2018-01-01T03:31:31.501Z,0.00
2018-01-01T03:32:31.491Z,0.00
2018-01-01T03:33:31.480Z,0.00
2018-01-01T03:34:31.469Z,0.00
2018-01-01T03:35:31.462Z,0.00
2018-01-01T03:36:31.454Z,0.00
2018-01-01T03:37:31.440Z,0.00
2018-01-01T03:38:31.431Z,0.00
2018-01-01T03:39:31.418Z,0.00
2018-01-01T03:40:31.412Z,0.00
2018-01-01T03:41:31.402Z,0.00
2018-01-01T03:42:31.387Z,0.00
2018-01-01T03:43:31.383Z,0.00
2018-01-01T03:44:31.372Z,0.00
2018-01-01T03:45:31.363Z,0.00
2018-01-01T03:46:31.351Z,0.00
2018-01-01T03:47:31.344Z,0.00
2018-01-01T03:48:31.332Z,0.00
2018-01-01T03:49:31.319Z,0.00
2018-01-01T03:50:31.316Z,0.00
2018-01-01T03:51:31.298Z,0.00
2018-01-01T03:52:31.294Z,0.00
2018-01-01T03:53:31.281Z,0.00
2018-01-01T03:54:31.271Z,0.00
2018-01-01T03:55:31.261Z,0.00
2018-01-01T03:56:31.248Z,0.00
2018-01-01T03:57:31.243Z,0.00
2018-01-01T03:58:31.230Z,0.00
2018-01-01T03:59:31.234Z,0.00
2018-01-01T04:00:31.214Z,0.00
2018-01-01T04:01:31.200Z,0.00
2018-01-01T04:02:31.193Z,0.00
2018-01-01T04:03:31.188Z,0.00
2018-01-01T04:04:31.170Z,0.00
2018-01-01T04:05:31.166Z,0.00
2018-01-01T04:06:31.152Z,0.00
2018-01-01T04:07:31.160Z,0.00
2018-01-01T04:08:31.140Z,0.00
2018-01-01T04:09:31.126Z,0.00
2018-01-01T04:10:31.119Z,0.00
2018-01-01T04:11:31.097Z,0.00
2018-01-01T04:12:31.089Z,0.00
2018-01-01T04:13:31.080Z,0.00
2018-01-01T04:14:31.097Z,0.00
2018-01-01T04:15:31.058Z,0.00
2018-01-01T04:16:31.044Z,0.00
2018-01-01T04:17:31.038Z,0.00
2018-01-01T04:18:31.040Z,0.00
2018-01-01T04:19:31.019Z,0.00
2018-01-01T04:20:31.012Z,0.00
2018-01-01T04:21:30.996Z,0.00
2018-01-01T04:22:31.003Z,0.00
2018-01-01T04:23:30.977Z,0.00
2018-01-01T04:24:30.983Z,0.00
2018-01-01T04:25:30.955Z,0.00
2018-01-01T04:26:30.945Z,0.00
2018-01-01T04:27:30.940Z,0.00
2018-01-01T04:28:30.928Z,0.00
2018-01-01T04:29:30.917Z,0.00
2018-01-01T04:30:30.908Z,0.00
2018-01-01T04:31:30.899Z,0.00
2018-01-01T04:32:30.894Z,0.00
2018-01-01T04:33:30.886Z,0.00
2018-01-01T04:34:30.874Z,0.00
2018-01-01T04:35:30.857Z,0.00
2018-01-01T04:36:30.844Z,0.00
2018-01-01T04:37:30.838Z,0.00
2018-01-01T04:38:30.822Z,0.00
2018-01-01T04:39:30.815Z,0.00
2018-01-01T04:40:30.813Z,0.00
2018-01-01T04:41:30.797Z,0.00
2018-01-01T04:42:30.784Z,0.00
2018-01-01T04:43:30.774Z,0.00
2018-01-01T04:44:30.760Z,0.00
2018-01-01T04:45:30.754Z,0.00
2018-01-01T04:46:30.741Z,0.00
2018-01-01T04:47:30.749Z,0.00
2018-01-01T04:48:30.729Z,0.00
2018-01-01T04:49:30.711Z,0.00
2018-01-01T04:50:30.703Z,0.00
2018-01-01T04:51:30.696Z,0.00
2018-01-01T04:52:30.680Z,0.00
2018-01-01T04:53:30.672Z,0.00
2018-01-01T04:54:30.663Z,0.00
2018-01-01T04:55:30.651Z,0.00
2018-01-01T04:56:30.645Z,0.00
2018-01-01T04:57:30.632Z,0.00
2018-01-01T04:58:30.623Z,0.00
2018-01-01T04:59:30.616Z,0.00
2018-01-01T05:00:30.603Z,0.00
2018-01-01T05:01:30.589Z,0.00
2018-01-01T05:02:30.581Z,0.00
2018-01-01T05:03:30.577Z,0.00
2018-01-01T05:04:30.561Z,0.00
2018-01-01T05:05:30.553Z,0.00
2018-01-01T05:06:30.539Z,0.00
2018-01-01T05:07:30.529Z,0.00
2018-01-01T05:08:30.522Z,0.00
2018-01-01T05:09:30.555Z,0.00
2018-01-01T05:10:30.521Z,0.00
2018-01-01T05:11:30.497Z,0.00
2018-01-01T05:12:30.484Z,0.00
2018-01-01T05:13:30.469Z,0.00
2018-01-01T05:14:30.471Z,0.00
2018-01-01T05:15:30.492Z,0.00
2018-01-01T05:16:30.441Z,0.00
2018-01-01T05:17:30.433Z,0.00
2018-01-01T05:18:30.421Z,0.00
2018-01-01T05:19:30.411Z,0.00
2018-01-01T05:20:30.400Z,0.00
2018-01-01T05:21:30.393Z,0.00
2018-01-01T05:22:30.376Z,0.00
2018-01-01T05:23:30.366Z,0.00
2018-01-01T05:24:30.364Z,0.00
2018-01-01T05:25:30.348Z,0.00
2018-01-01T05:26:30.349Z,0.00
2018-01-01T05:27:30.348Z,0.00
2018-01-01T05:28:30.319Z,0.00
2018-01-01T05:29:30.319Z,0.00
2018-01-01T05:30:30.304Z,0.00
2018-01-01T05:31:30.285Z,0.00
2018-01-01T05:32:30.284Z,0.00
2018-01-01T05:33:30.287Z,0.00
2018-01-01T05:34:30.261Z,0.00
2018-01-01T05:35:30.247Z,0.00
2018-01-01T05:36:30.244Z,0.00
2018-01-01T05:37:30.224Z,0.00
2018-01-01T05:38:30.214Z,0.00
2018-01-01T05:39:30.229Z,0.00
2018-01-01T05:40:30.204Z,0.00
2018-01-01T05:41:30.187Z,0.00
2018-01-01T05:42:30.179Z,0.00
2018-01-01T05:43:30.165Z,0.00
2018-01-01T05:44:30.152Z,0.00
2018-01-01T05:45:30.146Z,0.00
2018-01-01T05:46:30.136Z,0.00
2018-01-01T05:47:30.127Z,0.00
2018-01-01T05:48:30.118Z,0.00
2018-01-01T05:49:30.104Z,0.00
2018-01-01T05:50:30.090Z,0.00
2018-01-01T05:51:30.080Z,0.00
2018-01-01T05:52:30.085Z,0.00
2018-01-01T05:53:30.066Z,0.00
2018-01-01T05:54:30.056Z,0.00
2018-01-01T05:55:30.042Z,0.00
2018-01-01T05:56:30.031Z,0.00
2018-01-01T05:57:30.024Z,0.00
2018-01-01T05:58:30.031Z,0.00
2018-01-01T05:59:30.016Z,0.00
2018-01-01T06:00:30.033Z,0.00
2018-01-01T06:01:30.001Z,0.00
2018-01-01T06:02:29.973Z,0.00
2018-01-01T06:03:29.961Z,0.00
2018-01-01T06:04:29.946Z,0.00
2018-01-01T06:05:29.938Z,0.00
2018-01-01T06:06:29.927Z,0.00
2018-01-01T06:07:29.926Z,0.00
2018-01-01T06:08:29.911Z,0.00
2018-01-01T06:09:29.900Z,0.00
2018-01-01T06:10:29.889Z,0.00
2018-01-01T06:11:29.873Z,0.00
2018-01-01T06:12:29.874Z,0.00
2018-01-01T06:13:29.859Z,0.00
2018-01-01T06:14:29.853Z,0.00
2018-01-01T06:15:29.838Z,0.00
2018-01-01T06:16:29.823Z,0.00
2018-01-01T06:17:29.822Z,0.00
2018-01-01T06:18:29.806Z,0.00
2018-01-01T06:19:29.794Z,0.00
2018-01-01T06:20:29.792Z,0.00
2018-01-01T06:21:29.776Z,0.00
2018-01-01T06:22:29.763Z,0.00
2018-01-01T06:23:29.752Z,0.00
2018-01-01T06:24:29.745Z,0.00
2018-01-01T06:25:29.732Z,0.00
2018-01-01T06:26:29.723Z,0.00
2018-01-01T06:27:29.711Z,0.00
2018-01-01T06:28:29.703Z,0.00
2018-01-01T06:29:29.691Z,0.00
2018-01-01T06:30:29.682Z,0.00
2018-01-01T06:31:29.670Z,0.00
2018-01-01T06:32:29.663Z,0.00
2018-01-01T06:33:29.653Z,0.00
2018-01-01T06:34:29.634Z,0.00
2018-01-01T06:35:29.628Z,0.00
2018-01-01T06:36:29.620Z,0.00
2018-01-01T06:37:29.612Z,0.00
2018-01-01T06:38:29.598Z,0.00
2018-01-01T06:39:29.596Z,0.00
2018-01-01T06:40:29.578Z,0.00
2018-01-01T06:41:29.564Z,0.00
2018-01-01T06:42:29.555Z,0.00
2018-01-01T06:43:29.544Z,0.00
2018-01-01T06:44:29.542Z,0.00
2018-01-01T06:45:29.527Z,0.00
2018-01-01T06:46:29.513Z,0.00
2018-01-01T06:47:29.501Z,0.00
2018-01-01T06:48:29.492Z,0.00
2018-01-01T06:49:29.488Z,0.00
2018-01-01T06:50:29.471Z,0.00
2018-01-01T06:51:29.462Z,0.00
2018-01-01T06:52:29.492Z,0.00
2018-01-01T06:53:29.452Z,0.00
2018-01-01T06:54:29.435Z,0.00
2018-01-01T06:55:29.428Z,0.00
2018-01-01T06:56:29.409Z,0.00
2018-01-01T06:57:29.395Z,0.00
2018-01-01T06:58:29.393Z,0.00
2018-01-01T06:59:29.383Z,0.00
2018-01-01T07:00:29.366Z,0.00
2018-01-01T07:01:29.360Z,0.00
2018-01-01T07:02:29.349Z,0.00
2018-01-01T07:03:29.337Z,0.00
2018-01-01T07:04:29.325Z,0.00
2018-01-01T07:05:29.319Z,0.00
2018-01-01T07:06:29.321Z,0.00
2018-01-01T07:07:29.298Z,0.00
2018-01-01T07:08:29.287Z,0.00
2018-01-01T07:09:29.277Z,0.00
2018-01-01T07:10:29.259Z,0.00
2018-01-01T07:11:29.269Z,0.00
2018-01-01T07:12:29.241Z,0.00
2018-01-01T07:13:29.231Z,0.00
2018-01-01T07:14:29.222Z,0.00
2018-01-01T07:15:29.210Z,0.00
2018-01-01T07:16:29.199Z,0.00
2018-01-01T07:17:29.192Z,0.00
2018-01-01T07:18:29.176Z,0.00
2018-01-01T07:19:29.165Z,0.00
2018-01-01T07:20:29.157Z,0.00
2018-01-01T07:21:29.153Z,0.00
2018-01-01T07:22:29.135Z,0.00
2018-01-01T07:23:29.122Z,0.00
2018-01-01T07:24:29.114Z,0.00
2018-01-01T07:25:29.102Z,0.00
2018-01-01T07:26:29.094Z,0.00
2018-01-01T07:27:29.104Z,0.00
2018-01-01T07:28:29.079Z,0.00
2018-01-01T07:29:29.061Z,0.00
2018-01-01T07:30:29.053Z,0.00
2018-01-01T07:31:29.042Z,0.00
2018-01-01T07:32:29.031Z,0.00
2018-01-01T07:33:29.018Z,0.00
2018-01-01T07:34:29.017Z,0.00
2018-01-01T07:35:29.005Z,0.00
2018-01-01T07:36:28.987Z,0.00
2018-01-01T07:37:28.982Z,0.00
2018-01-01T07:38:28.973Z,0.00
2018-01-01T07:39:28.955Z,0.00
2018-01-01T07:40:28.949Z,0.00
2018-01-01T07:41:28.936Z,5.63
2018-01-01T07:42:28.918Z,5.63
2018-01-01T07:43:28.913Z,5.63
2018-01-01T07:44:28.897Z,5.63
2018-01-01T07:45:28.893Z,11.25
2018-01-01T07:46:28.878Z,11.25
2018-01-01T07:47:28.864Z,11.25
2018-01-01T07:48:28.858Z,16.88
2018-01-01T07:49:28.856Z,22.50
2018-01-01T07:50:28.843Z,28.13
2018-01-01T07:51:28.828Z,28.13
2018-01-01T07:52:28.813Z,33.75
2018-01-01T07:53:28.801Z,33.75
2018-01-01T07:54:28.789Z,39.38
2018-01-01T07:55:28.783Z,50.63
2018-01-01T07:56:28.782Z,50.63
2018-01-01T07:57:28.765Z,50.63
2018-01-01T07:58:28.750Z,56.25
2018-01-01T07:59:28.745Z,56.25
2018-01-01T08:00:28.728Z,56.25
2018-01-01T08:01:28.718Z,67.50
2018-01-01T08:02:28.704Z,73.13
2018-01-01T08:03:28.705Z,73.13
2018-01-01T08:04:28.684Z,84.38
2018-01-01T08:05:28.673Z,95.63
2018-01-01T08:06:28.664Z,106.88
2018-01-01T08:07:28.662Z,112.50
2018-01-01T08:08:28.651Z,118.13
2018-01-01T08:09:28.635Z,123.75
2018-01-01T08:10:28.623Z,123.75
2018-01-01T08:11:28.607Z,129.38
2018-01-01T08:12:28.596Z,135.00
2018-01-01T08:13:28.597Z,135.00
2018-01-01T08:14:28.588Z,146.25
2018-01-01T08:15:28.563Z,146.25
2018-01-01T08:16:28.558Z,151.88
2018-01-01T08:17:28.550Z,168.75
2018-01-01T08:18:28.542Z,180.00
2018-01-01T08:19:28.521Z,185.63
2018-01-01T08:20:28.525Z,202.50
2018-01-01T08:21:28.501Z,202.50
2018-01-01T08:22:28.496Z,191.25
2018-01-01T08:23:28.478Z,196.88
2018-01-01T08:24:28.476Z,219.38
2018-01-01T08:25:28.463Z,236.25
2018-01-01T08:26:28.451Z,208.13
2018-01-01T08:27:28.441Z,208.13
2018-01-01T08:28:28.428Z,202.50
2018-01-01T08:29:28.420Z,202.50
2018-01-01T08:30:28.407Z,185.63
2018-01-01T08:31:28.399Z,151.88
2018-01-01T08:32:28.387Z,151.88
2018-01-01T08:33:28.375Z,168.75
2018-01-01T08:34:28.366Z,151.88
2018-01-01T08:35:28.355Z,151.88
2018-01-01T08:36:28.345Z,151.88
2018-01-01T08:37:28.349Z,168.75
2018-01-01T08:38:28.321Z,208.13
2018-01-01T08:39:28.309Z,230.63
2018-01-01T08:40:28.310Z,236.25
2018-01-01T08:41:28.293Z,225.00
2018-01-01T08:42:28.286Z,241.88
2018-01-01T08:43:28.271Z,264.38
2018-01-01T08:44:28.261Z,241.88
2018-01-01T08:45:28.252Z,230.63
2018-01-01T08:46:28.239Z,219.38
2018-01-01T08:47:28.230Z,225.00
2018-01-01T08:48:28.219Z,225.00
2018-01-01T08:49:28.212Z,202.50
2018-01-01T08:50:28.203Z,230.63
2018-01-01T08:51:28.221Z,258.75
2018-01-01T08:52:28.179Z,247.50
2018-01-01T08:53:28.231Z,247.50
2018-01-01T08:54:28.181Z,253.13
2018-01-01T08:55:28.172Z,275.63
2018-01-01T08:56:28.136Z,270.00
2018-01-01T08:57:28.135Z,275.63
2018-01-01T08:58:28.113Z,275.63
2018-01-01T08:59:28.112Z,270.00
2018-01-01T09:00:28.099Z,281.25
2018-01-01T09:01:28.086Z,292.50
2018-01-01T09:02:28.072Z,298.13
2018-01-01T09:03:28.062Z,275.63
2018-01-01T09:04:28.049Z,253.13
2018-01-01T09:05:28.040Z,225.00
2018-01-01T09:06:28.045Z,230.63
2018-01-01T09:07:28.032Z,225.00
2018-01-01T09:08:28.009Z,219.38
2018-01-01T09:09:28.006Z,213.75
2018-01-01T09:10:28.013Z,225.00
2018-01-01T09:11:27.988Z,213.75
2018-01-01T09:12:27.981Z,191.25
2018-01-01T09:13:27.962Z,196.88
2018-01-01T09:14:27.953Z,180.00
2018-01-01T09:15:27.938Z,185.63
2018-01-01T09:16:27.933Z,196.88
2018-01-01T09:17:27.931Z,180.00
2018-01-01T09:18:27.908Z,185.63
2018-01-01T09:19:27.903Z,202.50
2018-01-01T09:20:27.890Z,208.13
2018-01-01T09:21:27.899Z,191.25
2018-01-01T09:22:27.897Z,168.75
2018-01-01T09:23:27.897Z,196.88
2018-01-01T09:24:27.850Z,196.88
2018-01-01T09:25:27.861Z,219.38
2018-01-01T09:26:27.832Z,213.75
2018-01-01T09:27:27.822Z,191.25
2018-01-01T09:28:27.805Z,180.00
2018-01-01T09:29:27.795Z,180.00
2018-01-01T09:30:27.785Z,174.38
2018-01-01T09:31:27.776Z,174.38
2018-01-01T09:32:27.767Z,225.00
2018-01-01T09:33:27.761Z,258.75
2018-01-01T09:34:27.744Z,286.88
2018-01-01T09:35:27.742Z,343.13
2018-01-01T09:36:27.723Z,630.00
2018-01-01T09:37:27.721Z,382.50
2018-01-01T09:38:27.708Z,331.88
2018-01-01T09:39:27.698Z,320.63
2018-01-01T09:40:27.687Z,365.63
2018-01-01T09:41:27.686Z,421.88
2018-01-01T09:42:27.662Z,573.75
2018-01-01T09:43:27.661Z,601.88
2018-01-01T09:44:27.644Z,686.25
2018-01-01T09:45:27.640Z,433.13
2018-01-01T09:46:27.647Z,348.75
2018-01-01T09:47:27.612Z,343.13
2018-01-01T09:48:27.612Z,478.13
2018-01-01T09:49:27.601Z,466.88
2018-01-01T09:50:27.587Z,416.25
2018-01-01T09:51:27.580Z,354.38
2018-01-01T09:52:27.567Z,331.88
2018-01-01T09:53:27.559Z,360.00
2018-01-01T09:54:27.549Z,286.88
2018-01-01T09:55:27.533Z,253.13
2018-01-01T09:56:27.540Z,241.88
2018-01-01T09:57:27.515Z,281.25
2018-01-01T09:58:27.508Z,354.38
2018-01-01T09:59:27.588Z,1119.38
2018-01-01T10:00:27.486Z,483.75
2018-01-01T10:01:27.479Z,500.63
2018-01-01T10:02:27.472Z,506.25
2018-01-01T10:03:27.464Z,900.00
2018-01-01T10:04:27.444Z,551.25
2018-01-01T10:05:27.439Z,888.75
2018-01-01T10:06:27.428Z,461.25
2018-01-01T10:07:27.427Z,343.13
2018-01-01T10:08:27.410Z,405.00
2018-01-01T10:09:27.396Z,315.00
2018-01-01T10:10:27.390Z,360.00
2018-01-01T10:11:27.380Z,354.38
2018-01-01T10:12:27.385Z,399.38
2018-01-01T10:13:27.361Z,450.00
2018-01-01T10:14:27.347Z,410.63
2018-01-01T10:15:27.340Z,641.25
2018-01-01T10:16:27.341Z,1018.13
2018-01-01T10:17:27.332Z,765.00
2018-01-01T10:18:27.315Z,624.38
2018-01-01T10:19:27.302Z,607.50
2018-01-01T10:20:27.293Z,540.00
2018-01-01T10:21:27.282Z,450.00
2018-01-01T10:22:27.274Z,320.63
2018-01-01T10:23:27.261Z,326.25
2018-01-01T10:24:27.253Z,466.88
2018-01-01T10:25:27.244Z,607.50
2018-01-01T10:26:27.235Z,686.25
2018-01-01T10:27:27.223Z,523.13
2018-01-01T10:28:27.223Z,478.13
2018-01-01T10:29:27.208Z,438.75
2018-01-01T10:30:27.204Z,2379.38
2018-01-01T10:31:27.188Z,354.38
2018-01-01T10:32:27.178Z,275.63
2018-01-01T10:33:27.201Z,236.25
2018-01-01T10:34:27.165Z,202.50
2018-01-01T10:35:27.154Z,202.50
2018-01-01T10:36:27.142Z,236.25
2018-01-01T10:37:27.135Z,326.25
2018-01-01T10:38:27.137Z,388.13
2018-01-01T10:39:27.113Z,388.13
2018-01-01T10:40:27.106Z,438.75
2018-01-01T10:41:27.097Z,495.00
2018-01-01T10:42:27.085Z,365.63
2018-01-01T10:43:27.072Z,292.50
2018-01-01T10:44:27.068Z,292.50
2018-01-01T10:45:27.058Z,298.13
2018-01-01T10:46:27.065Z,264.38
2018-01-01T10:47:27.038Z,236.25
2018-01-01T10:48:27.024Z,247.50
2018-01-01T10:49:27.020Z,298.13
2018-01-01T10:50:27.005Z,461.25
2018-01-01T10:51:26.997Z,472.50
2018-01-01T10:52:26.990Z,545.63
2018-01-01T10:53:26.982Z,528.75
2018-01-01T10:54:26.993Z,652.50
2018-01-01T10:55:26.962Z,365.63
2018-01-01T10:56:26.949Z,298.13
2018-01-01T10:57:26.950Z,236.25
2018-01-01T10:58:26.934Z,213.75
2018-01-01T10:59:26.923Z,208.13
2018-01-01T11:00:26.917Z,202.50
2018-01-01T11:01:26.910Z,247.50
2018-01-01T11:02:26.894Z,309.38
2018-01-01T11:03:26.880Z,275.63
2018-01-01T11:04:26.871Z,219.38
2018-01-01T11:05:26.864Z,174.38
2018-01-01T11:06:26.854Z,191.25
2018-01-01T11:07:26.851Z,275.63
2018-01-01T11:08:26.835Z,230.63
2018-01-01T11:09:26.825Z,225.00
2018-01-01T11:10:26.818Z,247.50
2018-01-01T11:11:26.802Z,292.50
2018-01-01T11:12:26.796Z,286.88
2018-01-01T11:13:26.788Z,281.25
2018-01-01T11:14:26.776Z,286.88
2018-01-01T11:15:26.766Z,286.88
2018-01-01T11:16:26.755Z,258.75
2018-01-01T11:17:26.744Z,247.50
2018-01-01T11:18:26.731Z,292.50
2018-01-01T11:19:26.727Z,343.13
2018-01-01T11:20:26.749Z,337.50
2018-01-01T11:21:26.703Z,270.00
2018-01-01T11:22:26.720Z,241.88
2018-01-01T11:23:26.685Z,275.63
2018-01-01T11:24:26.681Z,309.38
2018-01-01T11:25:26.673Z,270.00
2018-01-01T11:26:26.657Z,281.25
2018-01-01T11:27:26.660Z,298.13
2018-01-01T11:28:26.646Z,264.38
2018-01-01T11:29:26.625Z,241.88
2018-01-01T11:30:26.619Z,225.00
2018-01-01T11:31:26.628Z,354.38
2018-01-01T11:32:26.611Z,421.88
2018-01-01T11:33:26.590Z,365.63
2018-01-01T11:34:26.579Z,354.38
2018-01-01T11:35:26.572Z,433.13
2018-01-01T11:36:26.561Z,545.63
2018-01-01T11:37:26.554Z,601.88
2018-01-01T11:38:26.537Z,573.75
2018-01-01T11:39:26.528Z,483.75
2018-01-01T11:40:26.521Z,405.00
2018-01-01T11:41:26.512Z,365.63
2018-01-01T11:42:26.506Z,427.50
2018-01-01T11:43:26.499Z,438.75
2018-01-01T11:44:26.485Z,303.75
2018-01-01T11:45:26.473Z,225.00
2018-01-01T11:46:26.466Z,275.63
2018-01-01T11:47:26.453Z,354.38
2018-01-01T11:48:26.446Z,354.38
2018-01-01T11:49:26.437Z,331.88
2018-01-01T11:50:26.423Z,810.00
2018-01-01T11:51:26.423Z,506.25
2018-01-01T11:52:26.408Z,483.75
2018-01-01T11:53:26.394Z,545.63
2018-01-01T11:54:26.385Z,573.75
2018-01-01T11:55:26.379Z,495.00
2018-01-01T11:56:26.366Z,495.00
2018-01-01T11:57:26.357Z,433.13
2018-01-01T11:58:26.347Z,388.13
2018-01-01T11:59:26.345Z,376.88
2018-01-01T12:00:26.350Z,433.13
2018-01-01T12:01:26.324Z,444.38
2018-01-01T12:02:26.312Z,433.13
2018-01-01T12:03:26.303Z,416.25
2018-01-01T12:04:26.292Z,393.75
2018-01-01T12:05:26.285Z,455.63
2018-01-01T12:06:26.274Z,596.25
2018-01-01T12:07:26.268Z,815.63
2018-01-01T12:08:26.264Z,776.25
2018-01-01T12:09:26.247Z,556.88
2018-01-01T12:10:26.234Z,483.75
2018-01-01T12:11:26.231Z,545.63
2018-01-01T12:12:26.258Z,585.00
2018-01-01T12:13:26.212Z,517.50
2018-01-01T12:14:26.212Z,517.50
2018-01-01T12:15:26.191Z,500.63
2018-01-01T12:16:26.182Z,382.50
2018-01-01T12:17:26.172Z,365.63
2018-01-01T12:18:26.162Z,354.38
2018-01-01T12:19:26.154Z,286.88
2018-01-01T12:20:26.141Z,258.75
2018-01-01T12:21:26.137Z,241.88
2018-01-01T12:22:26.132Z,202.50
2018-01-01T12:23:26.118Z,174.38
2018-01-01T12:24:26.104Z,157.50
2018-01-01T12:25:26.093Z,157.50
2018-01-01T12:26:26.096Z,140.63
2018-01-01T12:27:26.078Z,146.25
2018-01-01T12:28:26.071Z,180.00
2018-01-01T12:29:26.062Z,168.75
2018-01-01T12:30:26.048Z,163.13
2018-01-01T12:31:26.039Z,168.75
2018-01-01T12:32:26.033Z,151.88
2018-01-01T12:33:29.193Z,129.38
2018-01-01T12:34:28.134Z,123.75
2018-01-01T12:35:29.773Z,129.38
2018-01-01T12:36:26.060Z,140.63
2018-01-01T12:37:25.987Z,140.63
2018-01-01T12:38:25.976Z,129.38
2018-01-01T12:39:25.967Z,135.00
2018-01-01T12:40:25.964Z,146.25
2018-01-01T12:41:25.961Z,163.13
2018-01-01T12:42:25.954Z,174.38
2018-01-01T12:43:25.968Z,191.25
2018-01-01T12:44:25.938Z,202.50
2018-01-01T12:45:25.911Z,213.75
2018-01-01T12:46:25.901Z,270.00
2018-01-01T12:47:25.892Z,646.88
2018-01-01T12:48:25.883Z,309.38
2018-01-01T12:49:25.873Z,292.50
2018-01-01T12:50:25.861Z,753.75
2018-01-01T12:51:25.859Z,343.13
2018-01-01T12:52:25.843Z,472.50
2018-01-01T12:53:25.840Z,1023.75
2018-01-01T12:54:25.827Z,990.00
2018-01-01T12:55:25.826Z,573.75
2018-01-01T12:56:25.806Z,478.13
2018-01-01T12:57:25.796Z,421.88
2018-01-01T12:58:25.788Z,365.63